Time;durP1;ratioP1;P1;durP2;ratioP2;P2;SDS_P1;SDS_P2;PMS_P1;PMS_P2;Temp;Humidity;BMP_temperature;BMP_pressure;BME280_temperature;BME280_humidity;BME280_pressure;Samples;Min_cycle;Max_cycle;Signal;HPM_P1;HPM_P2
2022/02/04 00:09:43;;;;;;;1999.90;999.90;;;;;;;1.07;63.28;100667.88;4958874;28;96846;-77
2022/02/04 00:20:34;;;;;;;1999.90;999.90;;;;;;;0.97;63.30;100665.56;4961530;28;97134;-78
2022/02/04 00:23:10;;;;;;;1999.90;999.90;;;;;;;0.96;62.63;100664.63;4962554;28;100813;-78
2022/02/04 00:28:34;;;;;;;1999.90;999.90;;;;;;;0.92;63.32;100673.13;4963330;28;97035;-77
2022/02/04 00:31:21;;;;;;;1999.90;999.90;;;;;;;1.21;62.08;100669.56;4962466;28;97047;-77
2022/02/04 00:33:52;;;;;;;1999.90;999.90;;;;;;;1.37;61.61;100671.31;4963786;28;99252;-78
2022/02/04 00:36:25;;;;;;;1999.90;999.90;;;;;;;1.49;61.55;100670.28;4975974;28;98914;-77
2022/02/04 00:38:55;;;;;;;1999.90;999.90;;;;;;;1.26;61.94;100678.59;4962098;28;97412;-77
2022/02/04 00:41:28;;;;;;;1999.90;999.90;;;;;;;1.16;62.33;100681.50;4964178;28;97639;-77
2022/02/04 00:43:58;;;;;;;1999.90;999.90;;;;;;;1.10;62.28;100689.03;4962251;28;99207;-77
2022/02/04 00:46:30;;;;;;;1999.90;999.90;;;;;;;1.05;63.08;100685.25;4964785;28;97700;-78
2022/02/04 00:49:16;;;;;;;1999.90;999.90;;;;;;;1.00;62.74;100684.06;4961219;28;96910;-77
2022/02/04 00:51:55;;;;;;;1999.90;999.90;;;;;;;0.95;62.57;100673.31;4965814;28;96902;-77
2022/02/04 00:54:28;;;;;;;1999.90;999.90;;;;;;;0.95;62.50;100677.66;4980081;28;99435;-77
2022/02/04 00:57:09;;;;;;;1999.90;999.90;;;;;;;0.94;62.54;100688.97;4958864;28;99523;-77
2022/02/04 01:13:35;;;;;;;1999.90;999.90;;;;;;;0.90;62.79;100689.59;4963637;28;98085;-76
2022/02/04 01:27:35;;;;;;;1999.90;999.90;;;;;;;0.88;63.09;100692.13;4960009;28;99975;-77
2022/02/04 01:30:16;;;;;;;1999.90;999.90;;;;;;;0.87;62.63;100684.16;4961779;28;98937;-76
2022/02/04 01:32:44;;;;;;;1999.90;999.90;;;;;;;0.86;62.36;100687.59;4944000;28;97530;-75
2022/02/04 01:35:12;;;;;;;1999.90;999.90;;;;;;;0.84;63.05;100677.03;4966099;28;97083;-77
2022/02/04 01:37:40;;;;;;;1999.90;999.90;;;;;;;0.85;63.15;100680.56;4960902;28;99264;-77
2022/02/04 01:40:09;;;;;;;1999.90;999.90;;;;;;;0.85;62.83;100675.34;4946106;28;101038;-77
2022/02/04 01:42:36;;;;;;;1999.90;999.90;;;;;;;0.85;63.12;100680.56;4959896;28;98000;-77
2022/02/04 01:45:06;;;;;;;1999.90;999.90;;;;;;;0.85;62.55;100675.34;4961712;28;99009;-77
2022/02/04 01:47:34;;;;;;;1999.90;999.90;;;;;;;0.85;62.79;100680.56;4940889;28;98991;-77
2022/02/04 01:50:02;;;;;;;1999.90;999.90;;;;;;;0.85;62.63;100681.44;4956431;28;98695;-77
2022/02/04 01:52:29;;;;;;;1999.90;999.90;;;;;;;0.84;62.88;100689.22;4946962;28;98159;-78
2022/02/04 01:54:58;;;;;;;1999.90;999.90;;;;;;;0.85;63.07;100675.34;4961000;28;97143;-77
2022/02/04 01:57:25;;;;;;;1999.90;999.90;;;;;;;0.85;62.61;100680.56;4942366;28;100891;-77
2022/02/04 01:59:53;;;;;;;1999.90;999.90;;;;;;;0.83;62.61;100683.06;4962348;28;97648;-77
2022/02/04 02:02:22;;;;;;;1999.90;999.90;;;;;;;0.79;62.70;100686.34;4956105;28;99442;-76
2022/02/04 02:04:50;;;;;;;1999.90;999.90;;;;;;;0.79;62.96;100677.59;4960372;28;97513;-76
2022/02/04 02:07:21;;;;;;;1999.90;999.90;;;;;;;0.80;62.40;100680.28;4959864;28;99315;-77
2022/02/04 02:09:56;;;;;;;1999.90;999.90;;;;;;;0.79;62.47;100681.13;4958256;28;98707;-77
2022/02/04 02:12:27;;;;;;;1999.90;999.90;;;;;;;0.79;62.56;100691.59;4959573;28;96965;-77
2022/02/04 02:15:06;;;;;;;1999.90;999.90;;;;;;;0.78;62.80;100688.84;4960917;28;97580;-77
2022/02/04 02:38:34;;;;;;;1999.90;999.90;;;;;;;0.78;62.85;100670.53;4979438;28;98232;-77
2022/02/04 02:41:28;;;;;;;1999.90;999.90;;;;;;;0.79;62.81;100669.72;4966250;28;97909;-77
2022/02/04 02:43:24;;;;;;;1999.90;999.90;;;;;;;0.81;62.83;100679.47;4961855;28;97652;-78
2022/02/04 02:46:05;;;;;;;1999.90;999.90;;;;;;;0.81;63.09;100671.59;4989911;28;97442;-77
2022/02/04 02:48:56;;;;;;;1999.90;999.90;;;;;;;0.82;62.79;100669.91;4965296;28;96792;-78
2022/02/04 02:51:52;;;;;;;1999.90;999.90;;;;;;;0.82;62.98;100665.56;4965913;28;99190;-76
2022/02/04 02:59:55;;;;;;;1999.90;999.90;;;;;;;0.83;62.66;100669.97;4964170;28;97051;-75
2022/02/04 03:02:22;;;;;;;1999.90;999.90;;;;;;;0.84;62.28;100673.50;4959303;28;99610;-77
2022/02/04 03:04:51;;;;;;;1999.90;999.90;;;;;;;0.81;62.75;100669.00;4967013;28;100923;-78
2022/02/04 03:07:18;;;;;;;1999.90;999.90;;;;;;;0.82;62.52;100665.56;4959264;28;97784;-78
2022/02/04 03:09:55;;;;;;;1999.90;999.90;;;;;;;0.81;62.78;100668.09;4963449;28;97125;-77
2022/02/04 03:12:24;;;;;;;1999.90;999.90;;;;;;;0.83;62.62;100667.38;4960409;28;98956;-75
2022/02/04 03:14:53;;;;;;;1999.90;999.90;;;;;;;0.83;62.92;100675.22;4964497;28;99622;-78
2022/02/04 03:17:21;;;;;;;1999.90;999.90;;;;;;;0.84;62.67;100663.03;4973791;28;96842;-78
2022/02/04 03:19:52;;;;;;;1999.90;999.90;;;;;;;0.81;62.97;100668.09;4969476;28;97161;-78
2022/02/04 03:22:20;;;;;;;1999.90;999.90;;;;;;;0.79;63.41;100664.50;4963316;28;98130;-77
2022/02/04 03:24:56;;;;;;;1999.90;999.90;;;;;;;0.77;62.56;100661.78;4965735;28;97687;-76
2022/02/04 03:27:33;;;;;;;1999.90;999.90;;;;;;;0.77;62.81;100673.97;4965141;28;97005;-77
2022/02/04 03:30:06;;;;;;;1999.90;999.90;;;;;;;0.75;63.23;100676.50;4963251;28;97417;-76
2022/02/04 03:32:37;;;;;;;1999.90;999.90;;;;;;;0.75;62.47;100670.38;4963549;28;97706;-76
2022/02/04 03:35:05;;;;;;;1999.90;999.90;;;;;;;0.75;62.94;100667.75;4961730;28;99213;-77
2022/02/04 03:37:33;;;;;;;1999.90;999.90;;;;;;;0.75;63.12;100662.50;4963555;28;97148;-77
2022/02/04 03:40:01;;;;;;;1999.90;999.90;;;;;;;0.77;62.96;100672.28;4962359;28;97565;-77
2022/02/04 03:42:30;;;;;;;1999.90;999.90;;;;;;;0.75;63.03;100665.13;4962652;28;99814;-77
2022/02/04 03:44:58;;;;;;;1999.90;999.90;;;;;;;0.75;63.23;100663.41;4985193;28;99403;-77
2022/02/04 03:47:26;;;;;;;1999.90;999.90;;;;;;;0.75;62.93;100654.66;4965400;28;97706;-76
2022/02/04 03:49:53;;;;;;;1999.90;999.90;;;;;;;0.76;63.01;100656.44;4986655;28;97574;-77
2022/02/04 03:52:22;;;;;;;1999.90;999.90;;;;;;;0.76;63.31;100666.91;4946774;28;99306;-77
2022/02/04 03:54:50;;;;;;;1999.90;999.90;;;;;;;0.71;63.61;100661.44;4979339;28;99827;-77
2022/02/04 03:57:18;;;;;;;1999.90;999.90;;;;;;;0.72;63.37;100654.47;4981447;28;96871;-77
2022/02/04 03:59:47;;;;;;;1999.90;999.90;;;;;;;0.70;62.66;100659.63;4960259;28;97436;-77
2022/02/04 04:02:15;;;;;;;1999.90;999.90;;;;;;;0.70;62.75;100675.34;4963972;28;97739;-77
2022/02/04 04:04:55;;;;;;;1999.90;999.90;;;;;;;0.67;62.97;100654.19;4948128;28;99304;-77
2022/02/04 04:07:23;;;;;;;1999.90;999.90;;;;;;;0.67;62.97;100654.19;4961967;28;97813;-76
2022/02/04 04:09:58;;;;;;;1999.90;999.90;;;;;;;0.67;62.99;100651.56;4980782;28;97407;-77
2022/02/04 04:12:30;;;;;;;1999.90;999.90;;;;;;;0.66;63.03;100651.50;4976952;28;98183;-76
2022/02/04 04:15:06;;;;;;;1999.90;999.90;;;;;;;0.66;62.96;100667.22;4960241;28;100595;-77
2022/02/04 04:17:39;;;;;;;1999.90;999.90;;;;;;;0.67;62.82;100659.44;4962361;28;98532;-77
2022/02/04 04:20:09;;;;;;;1999.90;999.90;;;;;;;0.64;62.96;100656.66;4964614;28;97037;-77
2022/02/04 04:22:37;;;;;;;1999.90;999.90;;;;;;;0.63;62.93;100664.41;4962221;28;99503;-77
2022/02/04 04:25:05;;;;;;;1999.90;999.90;;;;;;;0.63;62.84;100657.44;4962929;28;98630;-77
2022/02/04 04:27:33;;;;;;;1999.90;999.90;;;;;;;0.65;62.94;100660.19;4965728;28;96559;-77
2022/02/04 04:30:03;;;;;;;1999.90;999.90;;;;;;;0.66;62.76;100660.25;4957268;28;98871;-77
2022/02/04 04:32:31;;;;;;;1999.90;999.90;;;;;;;0.68;62.61;100657.72;4958953;28;98475;-77
2022/02/04 04:34:59;;;;;;;1999.90;999.90;;;;;;;0.69;63.20;100654.28;4964243;28;98171;-77
2022/02/04 04:37:27;;;;;;;1999.90;999.90;;;;;;;0.71;62.71;100647.41;4961296;28;98971;-77
2022/02/04 04:40:07;;;;;;;1999.90;999.90;;;;;;;0.71;63.29;100643.09;4964542;28;96488;-78
2022/02/04 04:42:50;;;;;;;1999.90;999.90;;;;;;;0.73;62.89;100643.19;4957503;28;99541;-77
2022/02/04 04:45:48;;;;;;;1999.90;999.90;;;;;;;0.74;62.77;100640.63;4972326;28;100537;-77
2022/02/04 05:27:40;;;;;;;1999.90;999.90;;;;;;;0.86;62.33;100654.47;4958090;28;99096;-78
2022/02/04 05:29:52;;;;;;;1999.90;999.90;;;;;;;0.87;62.51;100648.41;4964230;28;99691;-78
2022/02/04 05:32:20;;;;;;;1999.90;999.90;;;;;;;0.88;62.27;100644.06;4960125;28;97769;-78
2022/02/04 05:34:50;;;;;;;1999.90;999.90;;;;;;;0.88;62.12;100650.22;4961703;28;97224;-78
2022/02/04 05:37:20;;;;;;;1999.90;999.90;;;;;;;0.87;62.39;100643.16;4961588;28;97914;-77
2022/02/04 05:39:54;;;;;;;1999.90;999.90;;;;;;;0.82;62.71;100647.25;4957500;28;101600;-77
2022/02/04 05:42:26;;;;;;;1999.90;999.90;;;;;;;0.79;62.56;100644.47;4959628;28;98607;-77
2022/02/04 05:44:59;;;;;;;1999.90;999.90;;;;;;;0.80;62.91;100641.00;4958095;28;96737;-77
2022/02/04 05:47:27;;;;;;;1999.90;999.90;;;;;;;0.81;62.93;100644.53;4966822;28;97674;-77
2022/02/04 05:50:11;;;;;;;1999.90;999.90;;;;;;;0.81;62.56;100641.91;4967167;28;98310;-77
2022/02/04 05:52:55;;;;;;;1999.90;999.90;;;;;;;0.79;63.08;100641.84;4964651;28;97276;-77
2022/02/04 05:55:38;;;;;;;1999.90;999.90;;;;;;;0.79;62.71;100643.53;4944123;28;97494;-77
2022/02/04 05:58:18;;;;;;;1999.90;999.90;;;;;;;0.79;62.26;100633.06;4972033;28;99073;-78
2022/02/04 06:00:52;;;;;;;1999.90;999.90;;;;;;;0.81;62.64;100636.69;4960820;28;97741;-78
2022/02/04 06:03:34;;;;;;;1999.90;999.90;;;;;;;0.84;62.12;100639.47;4958778;28;98619;-76
2022/02/04 06:06:20;;;;;;;1999.90;999.90;;;;;;;0.85;62.84;100634.31;4961355;28;98528;-77
2022/02/04 06:09:21;;;;;;;1999.90;999.90;;;;;;;0.87;63.01;100634.38;4978635;28;98826;-77
2022/02/04 06:11:58;;;;;;;1999.90;999.90;;;;;;;0.89;62.17;100632.75;4966164;28;98947;-77
2022/02/04 06:14:44;;;;;;;1999.90;999.90;;;;;;;0.91;62.16;100639.00;4965038;28;98116;-77
2022/02/04 06:22:45;;;;;;;1999.90;999.90;;;;;;;0.93;62.29;100638.28;4956798;28;100528;-77
2022/02/04 06:25:13;;;;;;;1999.90;999.90;;;;;;;0.94;63.00;100637.44;4964171;28;97677;-78
2022/02/04 06:27:42;;;;;;;1999.90;999.90;;;;;;;0.97;62.67;100639.34;4959434;28;97393;-77
2022/02/04 06:30:12;;;;;;;1999.90;999.90;;;;;;;0.98;62.42;100635.91;4960867;28;97410;-77
2022/02/04 06:32:40;;;;;;;1999.90;999.90;;;;;;;1.01;62.43;100639.59;4961670;28;97985;-78
2022/02/04 06:35:09;;;;;;;1999.90;999.90;;;;;;;1.03;61.92;100647.56;4964368;28;97283;-77
2022/02/04 06:37:37;;;;;;;1999.90;999.90;;;;;;;1.04;61.81;100641.50;4959765;28;96798;-77
2022/02/04 06:40:08;;;;;;;1999.90;999.90;;;;;;;1.02;61.96;100645.75;4954247;28;98063;-77
2022/02/04 06:42:36;;;;;;;1999.90;999.90;;;;;;;1.02;61.95;100648.38;4963309;28;99754;-77
2022/02/04 06:45:07;;;;;;;1999.90;999.90;;;;;;;1.00;61.90;100643.03;4963826;28;96835;-78
2022/02/04 06:47:35;;;;;;;1999.90;999.90;;;;;;;1.01;62.22;100639.59;4954083;28;96915;-78
2022/02/04 06:50:05;;;;;;;1999.90;999.90;;;;;;;1.00;61.90;100650.91;4966566;28;100603;-77
2022/02/04 06:52:33;;;;;;;1999.90;999.90;;;;;;;1.00;62.13;100650.00;4962261;28;97664;-78
2022/02/04 06:55:00;;;;;;;1999.90;999.90;;;;;;;1.01;62.22;100651.81;4943109;28;96914;-77
2022/02/04 06:57:30;;;;;;;1999.90;999.90;;;;;;;0.99;61.61;100658.69;4956103;28;96803;-77
2022/02/04 06:59:58;;;;;;;1999.90;999.90;;;;;;;1.01;61.99;100657.94;4964692;28;99018;-77
2022/02/04 07:02:27;;;;;;;1999.90;999.90;;;;;;;1.01;62.25;100657.94;4964797;28;97830;-78
2022/02/04 07:04:55;;;;;;;1999.90;999.90;;;;;;;0.98;62.19;100659.47;4963007;28;96884;-79
2022/02/04 07:07:23;;;;;;;1999.90;999.90;;;;;;;0.97;62.08;100655.06;4960636;28;96927;-77
2022/02/04 07:09:54;;;;;;;1999.90;999.90;;;;;;;0.96;62.67;100666.34;4959864;28;97701;-78
2022/02/04 07:12:30;;;;;;;1999.90;999.90;;;;;;;0.99;62.47;100663.94;4966149;28;100568;-78
2022/02/04 07:15:26;;;;;;;1999.90;999.90;;;;;;;1.01;62.36;100651.81;4961490;28;96706;-78
2022/02/04 07:18:01;;;;;;;1999.90;999.90;;;;;;;1.04;62.40;100662.47;4951239;28;97456;-78
2022/02/04 07:20:28;;;;;;;1999.90;999.90;;;;;;;1.03;62.30;100658.06;4964309;28;98490;-78
2022/02/04 07:22:56;;;;;;;1999.90;999.90;;;;;;;1.04;62.57;100663.38;4962613;28;96817;-79
2022/02/04 07:25:24;;;;;;;1999.90;999.90;;;;;;;1.05;62.66;100669.53;4964795;28;96835;-71
2022/02/04 07:27:51;;;;;;;1999.90;999.90;;;;;;;1.05;62.13;100670.41;4963195;28;97730;-77
2022/02/04 07:30:42;;;;;;;1999.90;999.90;;;;;;;1.06;61.99;100667.00;4964519;28;97694;-78
2022/02/04 07:33:15;;;;;;;1999.90;999.90;;;;;;;1.08;62.38;100651.34;4963925;28;96949;-78
2022/02/04 07:41:22;;;;;;;1999.90;999.90;;;;;;;1.06;62.13;100638.16;4914200;28;98202;-78
2022/02/04 07:43:50;;;;;;;1999.90;999.90;;;;;;;1.06;62.65;100642.50;4960043;28;100542;-78
2022/02/04 07:46:20;;;;;;;1999.90;999.90;;;;;;;1.07;62.49;100645.19;4944544;28;97165;-79
2022/02/04 07:48:48;;;;;;;1999.90;999.90;;;;;;;1.04;62.59;100642.41;4961059;28;97705;-78
2022/02/04 07:51:16;;;;;;;1999.90;999.90;;;;;;;1.01;62.72;100630.88;4964970;28;97849;-79
2022/02/04 07:53:43;;;;;;;1999.90;999.90;;;;;;;1.04;62.37;100628.41;4973397;28;100834;-78
2022/02/04 07:56:11;;;;;;;1999.90;999.90;;;;;;;1.00;62.38;100623.78;4963572;28;97060;-78
2022/02/04 07:58:39;;;;;;;1999.90;999.90;;;;;;;1.01;62.38;100620.38;4962645;28;97474;-78
2022/02/04 08:01:07;;;;;;;1999.90;999.90;;;;;;;1.00;62.76;100629.03;4959032;28;99140;-77
2022/02/04 08:03:40;;;;;;;1999.90;999.90;;;;;;;1.00;62.67;100615.94;4958785;28;99504;-78
2022/02/04 08:06:12;;;;;;;1999.90;999.90;;;;;;;1.02;62.99;100623.09;4977004;28;96778;-79
2022/02/04 08:08:53;;;;;;;1999.90;999.90;;;;;;;1.01;62.78;100615.16;4955177;28;98551;-79
2022/02/04 08:11:28;;;;;;;1999.90;999.90;;;;;;;1.04;63.17;100610.06;4961443;28;99311;-79
2022/02/04 08:14:18;;;;;;;1999.90;999.90;;;;;;;1.02;62.47;100602.13;4945745;28;100373;-78
2022/02/04 08:17:26;;;;;;;1999.90;999.90;;;;;;;0.98;62.97;100605.38;4958788;28;96851;-80
2022/02/04 08:23:11;;;;;;;1999.90;999.90;;;;;;;1.01;63.19;100588.94;4916202;28;98013;-77
2022/02/04 08:34:30;;;;;;;1999.90;999.90;;;;;;;1.06;63.42;100577.91;4972078;28;97647;-77
2022/02/04 08:37:38;;;;;;;1999.90;999.90;;;;;;;1.12;63.29;100582.59;4963386;28;97376;-78
2022/02/04 08:48:55;;;;;;;1999.90;999.90;;;;;;;1.31;62.90;100569.66;4967456;28;101220;-76
2022/02/04 08:51:33;;;;;;;1999.90;999.90;;;;;;;1.36;62.56;100567.31;4967105;28;96824;-77
2022/02/04 08:54:16;;;;;;;1999.90;999.90;;;;;;;1.37;62.08;100559.50;4983174;28;97243;-77
2022/02/04 08:56:51;;;;;;;1999.90;999.90;;;;;;;1.38;62.26;100561.31;4969317;28;98226;-78
2022/02/04 08:59:27;;;;;;;1999.90;999.90;;;;;;;1.34;62.66;100567.22;4983011;28;97205;-77
2022/02/04 09:02:01;;;;;;;1999.90;999.90;;;;;;;1.37;62.38;100564.75;4971187;28;96625;-78
2022/02/04 09:04:34;;;;;;;1999.90;999.90;;;;;;;1.38;62.79;100569.16;4969307;28;96683;-77
2022/02/04 09:07:06;;;;;;;1999.90;999.90;;;;;;;1.39;63.02;100559.59;4967663;28;99696;-77
2022/02/04 09:09:49;;;;;;;1999.90;999.90;;;;;;;1.43;62.49;100565.09;4962416;28;99479;-77
2022/02/04 09:18:35;;;;;;;1999.90;999.90;;;;;;;1.45;62.82;100563.44;4966024;28;100062;-78
2022/02/04 09:21:24;;;;;;;1999.90;999.90;;;;;;;1.49;62.91;100554.03;4971375;28;98750;-77
2022/02/04 09:23:52;;;;;;;1999.90;999.90;;;;;;;1.50;61.71;100548.88;4950025;28;97884;-77
2022/02/04 09:26:21;;;;;;;1999.90;999.90;;;;;;;1.53;62.31;100543.78;4977501;28;96824;-74
2022/02/04 09:28:48;;;;;;;1999.90;999.90;;;;;;;1.59;62.71;100543.22;4966021;28;96938;-78
2022/02/04 09:31:16;;;;;;;1999.90;999.90;;;;;;;1.61;61.80;100546.81;4977330;28;98911;-77
2022/02/04 09:33:44;;;;;;;1999.90;999.90;;;;;;;1.64;62.01;100542.63;4966806;28;97024;-78
2022/02/04 09:36:12;;;;;;;1999.90;999.90;;;;;;;1.71;62.20;100530.72;4966734;28;96755;-76
2022/02/04 09:38:39;;;;;;;1999.90;999.90;;;;;;;1.73;61.89;100535.25;4966561;28;100349;-78
2022/02/04 09:41:07;;;;;;;1999.90;999.90;;;;;;;1.76;62.23;100540.63;4967316;28;97247;-77
2022/02/04 09:43:36;;;;;;;1999.90;999.90;;;;;;;1.77;61.74;100547.69;4967270;28;98689;-77
2022/02/04 09:46:06;;;;;;;1999.90;999.90;;;;;;;1.79;61.78;100540.81;4957320;28;96853;-77
2022/02/04 09:48:34;;;;;;;1999.90;999.90;;;;;;;1.83;62.03;100542.78;4982951;28;100387;-78
2022/02/04 09:51:02;;;;;;;1999.90;999.90;;;;;;;1.88;62.21;100546.53;4977208;28;100627;-78
2022/02/04 10:05:10;;;;;;;1999.90;999.90;;;;;;;2.00;61.56;100543.63;4963598;28;97642;-77
2022/02/04 10:07:56;;;;;;;1999.90;999.90;;;;;;;2.03;61.08;100542.09;4963416;28;96983;-77
2022/02/04 10:13:36;;;;;;;1999.90;999.90;;;;;;;2.09;60.98;100536.28;4967677;28;98201;-78
2022/02/04 10:16:24;;;;;;;1999.90;999.90;;;;;;;2.12;61.71;100525.94;4969615;28;97310;-77
2022/02/04 10:19:04;;;;;;;1999.90;999.90;;;;;;;2.14;61.05;100517.28;4964423;28;96958;-78
2022/02/04 10:21:32;;;;;;;1999.90;999.90;;;;;;;2.20;61.40;100512.38;4968516;28;99778;-77
2022/02/04 10:24:00;;;;;;;1999.90;999.90;;;;;;;2.25;61.18;100511.69;4961043;28;97412;-77
2022/02/04 10:26:28;;;;;;;1999.90;999.90;;;;;;;2.28;61.10;100503.97;4957986;28;96622;-77
2022/02/04 10:28:56;;;;;;;1999.90;999.90;;;;;;;2.29;61.14;100513.66;4970381;28;97048;-77
2022/02/04 10:31:26;;;;;;;1999.90;999.90;;;;;;;2.31;61.31;100512.88;4952245;28;100729;-79
2022/02/04 10:34:00;;;;;;;1999.90;999.90;;;;;;;2.34;60.67;100506.91;4964923;28;98816;-79
2022/02/04 10:36:40;;;;;;;1999.90;999.90;;;;;;;2.35;60.62;100492.94;4969159;28;96860;-79
2022/02/04 10:39:38;;;;;;;1999.90;999.90;;;;;;;2.38;60.23;100493.13;4965469;28;97121;-79
2022/02/04 10:42:19;;;;;;;1999.90;999.90;;;;;;;2.43;60.72;100496.84;4961342;28;100474;-79
2022/02/04 10:53:47;;;;;;;1999.90;999.90;;;;;;;2.52;59.95;100471.03;4958528;28;99262;-78
2022/02/04 10:59:26;;;;;;;1999.90;999.90;;;;;;;2.57;60.45;100470.44;4968428;28;96411;-80
2022/02/04 11:02:20;;;;;;;1999.90;999.90;;;;;;;2.59;59.90;100470.50;4979895;28;97365;-77
2022/02/04 11:05:01;;;;;;;1999.90;999.90;;;;;;;2.58;59.68;100466.09;4951300;28;99588;-78
2022/02/04 11:08:01;;;;;;;1999.90;999.90;;;;;;;2.54;59.50;100466.75;4966744;28;100932;-78
2022/02/04 11:10:45;;;;;;;1999.90;999.90;;;;;;;2.58;59.91;100468.72;4962439;28;97379;-77
2022/02/04 11:35:55;;;;;;;1999.90;999.90;;;;;;;2.48;59.48;100438.47;4959827;28;97144;-78
2022/02/04 11:52:50;;;;;;;1999.90;999.90;;;;;;;2.55;60.06;100402.88;4921296;28;99048;-78
2022/02/04 11:55:33;;;;;;;1999.90;999.90;;;;;;;2.55;59.91;100400.28;4983579;28;96913;-78
2022/02/04 11:58:05;;;;;;;1999.90;999.90;;;;;;;2.63;60.28;100401.53;4969338;28;96824;-78
2022/02/04 12:00:37;;;;;;;1999.90;999.90;;;;;;;2.64;59.55;100398.97;4968373;28;98228;-77
2022/02/04 12:03:28;;;;;;;1999.90;999.90;;;;;;;2.62;59.21;100392.75;4962566;28;99399;-78
2022/02/04 12:05:56;;;;;;;1999.90;999.90;;;;;;;2.68;59.96;100384.25;4983631;28;97244;-78
2022/02/04 12:08:26;;;;;;;1999.90;999.90;;;;;;;2.70;59.47;100379.97;4969956;28;96789;-77
2022/02/04 12:10:59;;;;;;;1999.90;999.90;;;;;;;2.73;59.48;100374.88;4973762;28;100848;-78
2022/02/04 12:13:28;;;;;;;1999.90;999.90;;;;;;;2.76;59.89;100372.38;4974699;28;98152;-79
2022/02/04 12:16:05;;;;;;;1999.90;999.90;;;;;;;2.80;59.84;100372.56;4967633;28;98019;-78
2022/02/04 12:19:11;;;;;;;1999.90;999.90;;;;;;;2.80;58.58;100364.69;4967806;28;96679;-77
2022/02/04 12:21:46;;;;;;;1999.90;999.90;;;;;;;2.84;59.37;100363.09;4966542;28;99308;-73
2022/02/04 12:24:40;;;;;;;1999.90;999.90;;;;;;;2.88;58.76;100357.16;4967679;28;99309;-78
2022/02/04 12:27:39;;;;;;;1999.90;999.90;;;;;;;2.85;58.68;100354.41;4961748;28;97859;-78
2022/02/04 12:30:35;;;;;;;1999.90;999.90;;;;;;;2.84;58.53;100349.97;4968302;28;97650;-78
2022/02/04 12:33:04;;;;;;;1999.90;999.90;;;;;;;2.90;59.44;100356.41;4972399;28;97633;-78
2022/02/04 12:35:32;;;;;;;1999.90;999.90;;;;;;;2.90;59.34;100355.50;4969200;28;97716;-77
2022/02/04 12:37:59;;;;;;;1999.90;999.90;;;;;;;2.93;59.75;100346.03;4967302;28;97263;-78
2022/02/04 12:40:27;;;;;;;1999.90;999.90;;;;;;;2.96;59.79;100345.28;4980076;28;97039;-78
2022/02/04 12:42:56;;;;;;;1999.90;999.90;;;;;;;2.95;59.17;100327.69;4967109;28;99094;-79
2022/02/04 12:45:28;;;;;;;1999.90;999.90;;;;;;;2.95;59.21;100332.94;4965902;28;97258;-78
2022/02/04 12:48:04;;;;;;;1999.90;999.90;;;;;;;2.95;58.83;100323.34;4967446;28;96993;-78
2022/02/04 12:50:32;;;;;;;1999.90;999.90;;;;;;;2.98;58.54;100312.09;4963719;28;97630;-78
2022/02/04 12:53:00;;;;;;;1999.90;999.90;;;;;;;2.99;58.86;100311.25;4967360;28;97579;-78
2022/02/04 12:55:37;;;;;;;1999.90;999.90;;;;;;;2.99;58.66;100301.63;4968317;28;98798;-78
2022/02/04 12:58:25;;;;;;;1999.90;999.90;;;;;;;2.97;58.41;100303.28;4978740;28;97381;-78
2022/02/04 13:09:49;;;;;;;1999.90;999.90;;;;;;;3.35;59.01;100269.88;4984678;28;98020;-78
2022/02/04 13:12:17;;;;;;;1999.90;999.90;;;;;;;3.46;58.79;100263.31;4968359;28;97421;-78
2022/02/04 13:14:49;;;;;;;1999.90;999.90;;;;;;;3.55;58.62;100261.06;4970426;28;98487;-78
2022/02/04 13:17:30;;;;;;;1999.90;999.90;;;;;;;3.61;58.49;100259.56;4964967;28;98070;-77
2022/02/04 13:19:59;;;;;;;1999.90;999.90;;;;;;;3.65;58.27;100258.00;4972293;28;99905;-77
2022/02/04 13:22:27;;;;;;;1999.90;999.90;;;;;;;3.63;58.08;100260.53;4967117;28;96926;-78
2022/02/04 13:25:10;;;;;;;1999.90;999.90;;;;;;;3.56;57.19;100241.81;4967506;28;98193;-78
2022/02/04 13:27:38;;;;;;;1999.90;999.90;;;;;;;3.55;57.96;100250.53;4965702;28;99315;-78
2022/02/04 13:30:24;;;;;;;1999.90;999.90;;;;;;;3.49;57.96;100232.78;4971398;28;96991;-79
2022/02/04 13:32:52;;;;;;;1999.90;999.90;;;;;;;3.44;57.99;100231.66;4967605;28;98202;-78
2022/02/04 13:35:34;;;;;;;1999.90;999.90;;;;;;;3.34;57.66;100221.63;4969186;28;98947;-76
2022/02/04 13:38:09;;;;;;;1999.90;999.90;;;;;;;3.33;58.07;100237.34;4966457;28;98155;-76
2022/02/04 13:40:53;;;;;;;1999.90;999.90;;;;;;;3.27;58.45;100222.22;4964298;28;97338;-77
2022/02/04 13:43:24;;;;;;;1999.90;999.90;;;;;;;3.32;58.50;100215.41;4961676;28;97985;-76
2022/02/04 13:45:58;;;;;;;1999.90;999.90;;;;;;;3.29;58.69;100220.56;4965147;28;97947;-77
2022/02/04 13:48:41;;;;;;;1999.90;999.90;;;;;;;3.28;58.49;100218.75;4964364;28;101172;-75
2022/02/04 13:51:21;;;;;;;1999.90;999.90;;;;;;;3.30;58.71;100208.28;4971858;28;98477;-76
2022/02/04 13:54:22;;;;;;;1999.90;999.90;;;;;;;3.32;57.87;100201.34;4968128;28;97198;-76
2022/02/04 13:56:58;;;;;;;1999.90;999.90;;;;;;;3.39;58.68;100191.16;4976402;28;101337;-76
2022/02/04 13:59:38;;;;;;;1999.90;999.90;;;;;;;3.44;57.89;100186.97;4963936;28;98214;-76
2022/02/04 14:02:10;;;;;;;1999.90;999.90;;;;;;;3.47;58.13;100184.47;4966497;28;97534;-76
2022/02/04 14:04:38;;;;;;;1999.90;999.90;;;;;;;3.51;58.71;100180.22;4959738;28;96951;-79
2022/02/04 14:07:09;;;;;;;1999.90;999.90;;;;;;;3.49;57.99;100192.44;4966623;28;99649;-78
2022/02/04 14:09:40;;;;;;;1999.90;999.90;;;;;;;3.50;58.35;100186.31;4963132;28;99030;-76
2022/02/04 14:12:15;;;;;;;1999.90;999.90;;;;;;;3.44;57.69;100173.81;4981454;28;97229;-79
2022/02/04 14:14:43;;;;;;;1999.90;999.90;;;;;;;3.44;58.07;100183.47;4965117;28;97383;-79
2022/02/04 14:17:12;;;;;;;1999.90;999.90;;;;;;;3.46;58.63;100182.66;4963499;28;98502;-79
2022/02/04 14:19:40;;;;;;;1999.90;999.90;;;;;;;3.43;57.64;100192.16;4962798;28;99287;-78
2022/02/04 14:22:09;;;;;;;1999.90;999.90;;;;;;;3.39;57.57;100179.72;4962174;28;97523;-79
2022/02/04 14:24:37;;;;;;;1999.90;999.90;;;;;;;3.40;57.91;100168.38;4968019;28;98269;-78
2022/02/04 14:27:05;;;;;;;1999.90;999.90;;;;;;;3.38;57.52;100163.06;4985896;28;98785;-78
2022/02/04 14:29:40;;;;;;;1999.90;999.90;;;;;;;3.39;58.23;100156.97;4967863;28;98759;-79
2022/02/04 14:32:16;;;;;;;1999.90;999.90;;;;;;;3.40;58.08;100158.78;4959753;28;98608;-78
2022/02/04 14:34:59;;;;;;;1999.90;999.90;;;;;;;3.38;57.58;100152.56;4971208;28;97668;-78
2022/02/04 14:51:54;;;;;;;1999.90;999.90;;;;;;;3.33;57.79;100137.44;5055678;27;99746;-71
2022/02/04 14:54:44;;;;;;;1999.90;999.90;;;;;;;3.28;58.29;100139.88;5058427;27;96835;-71
2022/02/04 15:00:18;;;;;;;1999.90;999.90;;;;;;;3.18;57.95;100129.84;5053223;27;101147;-69
2022/02/04 15:02:49;;;;;;;1999.90;999.90;;;;;;;3.10;57.99;100121.63;5046112;27;97079;-71
2022/02/04 15:05:21;;;;;;;1999.90;999.90;;;;;;;3.09;58.29;100122.44;5055073;27;97207;-71
2022/02/04 15:08:13;;;;;;;1999.90;999.90;;;;;;;3.04;58.09;100112.59;5052318;27;100733;-72
2022/02/04 15:10:42;;;;;;;1999.90;999.90;;;;;;;3.05;57.94;100107.41;5054215;27;99738;-70
2022/02/04 15:13:18;;;;;;;1999.90;999.90;;;;;;;3.04;58.39;100112.59;5052932;27;98211;-71
2022/02/04 15:15:47;;;;;;;1999.90;999.90;;;;;;;3.03;58.03;100100.31;5054657;27;97689;-72
2022/02/04 15:18:15;;;;;;;1999.90;999.90;;;;;;;3.00;58.13;100089.69;5055633;27;97804;-71
2022/02/04 15:20:43;;;;;;;1999.90;999.90;;;;;;;2.95;58.04;100085.94;5054623;27;99212;-72
2022/02/04 15:23:13;;;;;;;1999.90;999.90;;;;;;;2.92;57.82;100088.47;5072825;27;96914;-71